sensor_id;sensor_type;location;lat;lon;timestamp;P1;durP1;ratioP1;P2;durP2;ratioP2
59728;SDS011;45588;51.598;5.618;2022-07-06T00:00:57;3.58;;;2.35;;
59728;SDS011;45588;51.598;5.618;2022-07-06T00:03:22;6.18;;;3.92;;
59728;SDS011;45588;51.598;5.618;2022-07-06T00:05:48;4.95;;;3.83;;
59728;SDS011;45588;51.598;5.618;2022-07-06T00:08:13;6.40;;;3.90;;
59728;SDS011;45588;51.598;5.618;2022-07-06T00:10:38;6.10;;;4.10;;
59728;SDS011;45588;51.598;5.618;2022-07-06T00:13:04;6.43;;;4.65;;
59728;SDS011;45588;51.598;5.618;2022-07-06T00:15:29;5.78;;;4.30;;
59728;SDS011;45588;51.598;5.618;2022-07-06T00:17:54;4.43;;;2.47;;
59728;SDS011;45588;51.598;5.618;2022-07-06T00:20:19;5.20;;;4.70;;
59728;SDS011;45588;51.598;5.618;2022-07-06T00:22:45;6.68;;;3.50;;
59728;SDS011;45588;51.598;5.618;2022-07-06T00:25:10;9.20;;;5.95;;
59728;SDS011;45588;51.598;5.618;2022-07-06T00:27:35;7.95;;;6.10;;
59728;SDS011;45588;51.598;5.618;2022-07-06T00:30:01;8.50;;;6.65;;
59728;SDS011;45588;51.598;5.618;2022-07-06T00:32:26;6.05;;;4.53;;
59728;SDS011;45588;51.598;5.618;2022-07-06T00:34:52;4.13;;;3.70;;
59728;SDS011;45588;51.598;5.618;2022-07-06T00:37:17;8.40;;;6.45;;
59728;SDS011;45588;51.598;5.618;2022-07-06T00:39:42;7.80;;;6.93;;
59728;SDS011;45588;51.598;5.618;2022-07-06T00:42:08;7.38;;;4.47;;
59728;SDS011;45588;51.598;5.618;2022-07-06T00:44:33;8.95;;;7.40;;
59728;SDS011;45588;51.598;5.618;2022-07-06T00:46:58;5.80;;;4.18;;
59728;SDS011;45588;51.598;5.618;2022-07-06T00:49:24;8.15;;;7.32;;
59728;SDS011;45588;51.598;5.618;2022-07-06T00:52:08;11.80;;;8.10;;
59728;SDS011;45588;51.598;5.618;2022-07-06T00:54:34;6.93;;;4.00;;
59728;SDS011;45588;51.598;5.618;2022-07-06T00:57:01;4.38;;;3.10;;
59728;SDS011;45588;51.598;5.618;2022-07-06T00:59:26;6.00;;;4.40;;
59728;SDS011;45588;51.598;5.618;2022-07-06T01:01:52;7.00;;;3.90;;
59728;SDS011;45588;51.598;5.618;2022-07-06T01:04:17;9.15;;;8.15;;
59728;SDS011;45588;51.598;5.618;2022-07-06T01:06:44;10.88;;;4.00;;
59728;SDS011;45588;51.598;5.618;2022-07-06T01:09:11;8.65;;;4.45;;
59728;SDS011;45588;51.598;5.618;2022-07-06T01:11:36;8.52;;;7.70;;
59728;SDS011;45588;51.598;5.618;2022-07-06T01:14:02;8.77;;;7.97;;
59728;SDS011;45588;51.598;5.618;2022-07-06T01:16:27;12.48;;;4.88;;
59728;SDS011;45588;51.598;5.618;2022-07-06T01:18:53;8.88;;;7.65;;
59728;SDS011;45588;51.598;5.618;2022-07-06T01:21:18;5.82;;;4.57;;
59728;SDS011;45588;51.598;5.618;2022-07-06T01:23:44;8.50;;;7.07;;
59728;SDS011;45588;51.598;5.618;2022-07-06T01:26:12;8.70;;;4.72;;
59728;SDS011;45588;51.598;5.618;2022-07-06T01:28:39;8.25;;;4.15;;
59728;SDS011;45588;51.598;5.618;2022-07-06T01:31:05;5.53;;;4.07;;
59728;SDS011;45588;51.598;5.618;2022-07-06T01:33:30;6.45;;;4.25;;
59728;SDS011;45588;51.598;5.618;2022-07-06T01:35:56;8.55;;;7.65;;
59728;SDS011;45588;51.598;5.618;2022-07-06T01:38:21;10.35;;;7.07;;
59728;SDS011;45588;51.598;5.618;2022-07-06T01:40:47;11.88;;;8.30;;
59728;SDS011;45588;51.598;5.618;2022-07-06T01:43:12;7.57;;;4.90;;
59728;SDS011;45588;51.598;5.618;2022-07-06T01:45:37;12.07;;;8.63;;
59728;SDS011;45588;51.598;5.618;2022-07-06T01:48:05;6.80;;;4.53;;
59728;SDS011;45588;51.598;5.618;2022-07-06T01:50:31;6.78;;;4.25;;
59728;SDS011;45588;51.598;5.618;2022-07-06T01:52:59;11.70;;;8.43;;
59728;SDS011;45588;51.598;5.618;2022-07-06T01:55:24;5.72;;;3.97;;
59728;SDS011;45588;51.598;5.618;2022-07-06T01:57:50;6.97;;;4.70;;
59728;SDS011;45588;51.598;5.618;2022-07-06T02:00:15;5.57;;;3.92;;
59728;SDS011;45588;51.598;5.618;2022-07-06T02:02:40;6.22;;;4.78;;
59728;SDS011;45588;51.598;5.618;2022-07-06T02:05:06;5.35;;;4.15;;
59728;SDS011;45588;51.598;5.618;2022-07-06T02:07:31;8.45;;;4.80;;
59728;SDS011;45588;51.598;5.618;2022-07-06T02:09:56;6.10;;;4.30;;
59728;SDS011;45588;51.598;5.618;2022-07-06T02:12:22;10.98;;;4.68;;
59728;SDS011;45588;51.598;5.618;2022-07-06T02:14:47;10.02;;;8.57;;
59728;SDS011;45588;51.598;5.618;2022-07-06T02:17:12;8.00;;;7.20;;
59728;SDS011;45588;51.598;5.618;2022-07-06T02:19:38;8.35;;;4.95;;
59728;SDS011;45588;51.598;5.618;2022-07-06T02:22:03;11.15;;;4.78;;
59728;SDS011;45588;51.598;5.618;2022-07-06T02:24:28;5.63;;;4.45;;
59728;SDS011;45588;51.598;5.618;2022-07-06T02:26:53;10.80;;;8.10;;
59728;SDS011;45588;51.598;5.618;2022-07-06T02:29:19;9.52;;;6.00;;
59728;SDS011;45588;51.598;5.618;2022-07-06T02:31:44;7.07;;;4.70;;
59728;SDS011;45588;51.598;5.618;2022-07-06T02:34:10;6.43;;;4.47;;
59728;SDS011;45588;51.598;5.618;2022-07-06T02:36:35;9.88;;;4.10;;
59728;SDS011;45588;51.598;5.618;2022-07-06T02:39:00;6.85;;;4.70;;
59728;SDS011;45588;51.598;5.618;2022-07-06T02:41:26;8.68;;;5.07;;
59728;SDS011;45588;51.598;5.618;2022-07-06T02:43:51;10.50;;;5.03;;
59728;SDS011;45588;51.598;5.618;2022-07-06T02:46:16;9.77;;;4.57;;
59728;SDS011;45588;51.598;5.618;2022-07-06T02:48:41;10.25;;;5.68;;
59728;SDS011;45588;51.598;5.618;2022-07-06T02:51:07;10.32;;;9.25;;
59728;SDS011;45588;51.598;5.618;2022-07-06T02:53:32;7.45;;;5.05;;
59728;SDS011;45588;51.598;5.618;2022-07-06T02:55:57;10.73;;;5.22;;
59728;SDS011;45588;51.598;5.618;2022-07-06T02:58:22;10.18;;;5.00;;
59728;SDS011;45588;51.598;5.618;2022-07-06T03:00:48;9.38;;;4.97;;
59728;SDS011;45588;51.598;5.618;2022-07-06T03:03:13;11.13;;;4.63;;
59728;SDS011;45588;51.598;5.618;2022-07-06T03:05:38;18.35;;;7.07;;
59728;SDS011;45588;51.598;5.618;2022-07-06T03:08:04;10.75;;;9.63;;
59728;SDS011;45588;51.598;5.618;2022-07-06T03:10:29;10.10;;;5.35;;
59728;SDS011;45588;51.598;5.618;2022-07-06T03:12:54;6.70;;;4.45;;
59728;SDS011;45588;51.598;5.618;2022-07-06T03:15:20;6.43;;;5.18;;
59728;SDS011;45588;51.598;5.618;2022-07-06T03:17:45;11.15;;;8.57;;
59728;SDS011;45588;51.598;5.618;2022-07-06T03:20:10;7.28;;;5.80;;
59728;SDS011;45588;51.598;5.618;2022-07-06T03:22:36;7.57;;;5.53;;
59728;SDS011;45588;51.598;5.618;2022-07-06T03:25:01;10.98;;;8.48;;
59728;SDS011;45588;51.598;5.618;2022-07-06T03:27:26;7.75;;;5.28;;
59728;SDS011;45588;51.598;5.618;2022-07-06T03:29:51;9.20;;;6.13;;
59728;SDS011;45588;51.598;5.618;2022-07-06T03:32:17;12.43;;;11.02;;
59728;SDS011;45588;51.598;5.618;2022-07-06T03:34:42;8.13;;;5.57;;
59728;SDS011;45588;51.598;5.618;2022-07-06T03:37:07;8.57;;;5.95;;
59728;SDS011;45588;51.598;5.618;2022-07-06T03:39:33;14.85;;;11.50;;
59728;SDS011;45588;51.598;5.618;2022-07-06T03:41:58;11.38;;;6.70;;
59728;SDS011;45588;51.598;5.618;2022-07-06T03:44:23;14.43;;;6.43;;
59728;SDS011;45588;51.598;5.618;2022-07-06T03:46:49;11.60;;;6.65;;
59728;SDS011;45588;51.598;5.618;2022-07-06T03:49:15;7.88;;;6.32;;
59728;SDS011;45588;51.598;5.618;2022-07-06T03:51:41;9.57;;;7.05;;
59728;SDS011;45588;51.598;5.618;2022-07-06T03:54:06;9.18;;;6.50;;
59728;SDS011;45588;51.598;5.618;2022-07-06T03:56:31;11.55;;;10.43;;
59728;SDS011;45588;51.598;5.618;2022-07-06T03:58:58;10.68;;;5.85;;
59728;SDS011;45588;51.598;5.618;2022-07-06T04:01:25;8.27;;;5.57;;
59728;SDS011;45588;51.598;5.618;2022-07-06T04:03:50;10.07;;;9.13;;
59728;SDS011;45588;51.598;5.618;2022-07-06T04:06:16;7.72;;;5.70;;
59728;SDS011;45588;51.598;5.618;2022-07-06T04:08:42;8.45;;;5.82;;
59728;SDS011;45588;51.598;5.618;2022-07-06T04:11:08;11.88;;;4.95;;
59728;SDS011;45588;51.598;5.618;2022-07-06T04:13:33;13.82;;;9.27;;
59728;SDS011;45588;51.598;5.618;2022-07-06T04:15:58;7.45;;;4.75;;
59728;SDS011;45588;51.598;5.618;2022-07-06T04:18:24;10.85;;;5.53;;
59728;SDS011;45588;51.598;5.618;2022-07-06T04:20:49;8.05;;;5.93;;
59728;SDS011;45588;51.598;5.618;2022-07-06T04:23:15;7.75;;;5.90;;
59728;SDS011;45588;51.598;5.618;2022-07-06T04:25:40;12.13;;;10.80;;
59728;SDS011;45588;51.598;5.618;2022-07-06T04:28:05;7.22;;;5.15;;
59728;SDS011;45588;51.598;5.618;2022-07-06T04:30:30;11.30;;;6.30;;
59728;SDS011;45588;51.598;5.618;2022-07-06T04:32:56;12.57;;;10.15;;
59728;SDS011;45588;51.598;5.618;2022-07-06T04:35:22;10.13;;;6.18;;
59728;SDS011;45588;51.598;5.618;2022-07-06T04:37:47;7.78;;;6.15;;
59728;SDS011;45588;51.598;5.618;2022-07-06T04:40:13;11.75;;;10.52;;
59728;SDS011;45588;51.598;5.618;2022-07-06T04:42:39;9.32;;;5.30;;
59728;SDS011;45588;51.598;5.618;2022-07-06T04:45:04;9.85;;;5.85;;
59728;SDS011;45588;51.598;5.618;2022-07-06T04:47:30;11.25;;;6.88;;
59728;SDS011;45588;51.598;5.618;2022-07-06T04:49:55;8.75;;;6.43;;
59728;SDS011;45588;51.598;5.618;2022-07-06T04:52:21;13.20;;;10.65;;
59728;SDS011;45588;51.598;5.618;2022-07-06T04:54:46;13.10;;;6.55;;
59728;SDS011;45588;51.598;5.618;2022-07-06T04:57:11;14.38;;;6.95;;
59728;SDS011;45588;51.598;5.618;2022-07-06T04:59:36;9.98;;;6.70;;
59728;SDS011;45588;51.598;5.618;2022-07-06T05:02:02;10.57;;;5.50;;
59728;SDS011;45588;51.598;5.618;2022-07-06T05:04:27;10.27;;;6.00;;
59728;SDS011;45588;51.598;5.618;2022-07-06T05:06:53;10.98;;;9.93;;
59728;SDS011;45588;51.598;5.618;2022-07-06T05:09:18;8.60;;;5.65;;
59728;SDS011;45588;51.598;5.618;2022-07-06T05:11:43;8.32;;;5.65;;
59728;SDS011;45588;51.598;5.618;2022-07-06T05:14:09;9.23;;;6.22;;
59728;SDS011;45588;51.598;5.618;2022-07-06T05:16:35;11.63;;;10.18;;
59728;SDS011;45588;51.598;5.618;2022-07-06T05:19:00;7.90;;;6.10;;
59728;SDS011;45588;51.598;5.618;2022-07-06T05:21:26;7.88;;;5.72;;
59728;SDS011;45588;51.598;5.618;2022-07-06T05:23:51;12.95;;;10.10;;
59728;SDS011;45588;51.598;5.618;2022-07-06T05:26:16;8.60;;;6.00;;
59728;SDS011;45588;51.598;5.618;2022-07-06T05:28:42;10.00;;;6.25;;
59728;SDS011;45588;51.598;5.618;2022-07-06T05:31:07;12.20;;;9.15;;
59728;SDS011;45588;51.598;5.618;2022-07-06T05:33:32;14.13;;;9.65;;
59728;SDS011;45588;51.598;5.618;2022-07-06T05:35:58;12.75;;;6.40;;
59728;SDS011;45588;51.598;5.618;2022-07-06T05:38:23;9.88;;;5.57;;
59728;SDS011;45588;51.598;5.618;2022-07-06T05:40:48;11.85;;;9.68;;
59728;SDS011;45588;51.598;5.618;2022-07-06T05:43:14;10.63;;;9.50;;
59728;SDS011;45588;51.598;5.618;2022-07-06T05:45:39;11.20;;;8.35;;
59728;SDS011;45588;51.598;5.618;2022-07-06T05:48:04;7.63;;;5.88;;
59728;SDS011;45588;51.598;5.618;2022-07-06T05:50:48;9.73;;;6.03;;
59728;SDS011;45588;51.598;5.618;2022-07-06T05:53:13;10.27;;;8.93;;
59728;SDS011;45588;51.598;5.618;2022-07-06T05:55:39;10.75;;;9.10;;
59728;SDS011;45588;51.598;5.618;2022-07-06T05:58:04;7.65;;;5.32;;
59728;SDS011;45588;51.598;5.618;2022-07-06T06:00:29;8.90;;;8.05;;
59728;SDS011;45588;51.598;5.618;2022-07-06T06:02:55;8.93;;;8.02;;
59728;SDS011;45588;51.598;5.618;2022-07-06T06:05:21;9.10;;;4.72;;
59728;SDS011;45588;51.598;5.618;2022-07-06T06:07:46;9.27;;;8.27;;
59728;SDS011;45588;51.598;5.618;2022-07-06T06:10:13;10.15;;;8.10;;
59728;SDS011;45588;51.598;5.618;2022-07-06T06:12:39;9.60;;;5.75;;
59728;SDS011;45588;51.598;5.618;2022-07-06T06:15:07;10.73;;;7.68;;
59728;SDS011;45588;51.598;5.618;2022-07-06T06:17:33;9.27;;;5.10;;
59728;SDS011;45588;51.598;5.618;2022-07-06T06:19:59;9.95;;;7.93;;
59728;SDS011;45588;51.598;5.618;2022-07-06T06:22:25;10.15;;;7.30;;
59728;SDS011;45588;51.598;5.618;2022-07-06T06:24:50;16.40;;;8.63;;
59728;SDS011;45588;51.598;5.618;2022-07-06T06:27:16;7.97;;;7.18;;
59728;SDS011;45588;51.598;5.618;2022-07-06T06:29:41;8.90;;;6.30;;
59728;SDS011;45588;51.598;5.618;2022-07-06T06:32:07;12.32;;;6.05;;
59728;SDS011;45588;51.598;5.618;2022-07-06T06:34:32;8.30;;;5.72;;
59728;SDS011;45588;51.598;5.618;2022-07-06T06:36:58;7.80;;;5.35;;
59728;SDS011;45588;51.598;5.618;2022-07-06T06:39:24;7.65;;;6.32;;
59728;SDS011;45588;51.598;5.618;2022-07-06T06:41:49;6.10;;;5.45;;
59728;SDS011;45588;51.598;5.618;2022-07-06T06:44:14;3.05;;;2.75;;
59728;SDS011;45588;51.598;5.618;2022-07-06T06:46:40;4.45;;;2.17;;
59728;SDS011;45588;51.598;5.618;2022-07-06T06:49:06;2.42;;;1.83;;
59728;SDS011;45588;51.598;5.618;2022-07-06T06:51:31;4.45;;;1.60;;
59728;SDS011;45588;51.598;5.618;2022-07-06T06:53:57;4.18;;;2.00;;
59728;SDS011;45588;51.598;5.618;2022-07-06T06:56:23;6.00;;;1.90;;
59728;SDS011;45588;51.598;5.618;2022-07-06T06:58:49;6.75;;;2.20;;
59728;SDS011;45588;51.598;5.618;2022-07-06T07:01:14;4.38;;;1.90;;
59728;SDS011;45588;51.598;5.618;2022-07-06T07:03:39;3.20;;;1.83;;
59728;SDS011;45588;51.598;5.618;2022-07-06T07:06:05;4.25;;;1.70;;
59728;SDS011;45588;51.598;5.618;2022-07-06T07:08:30;3.92;;;1.70;;
59728;SDS011;45588;51.598;5.618;2022-07-06T07:10:55;4.68;;;2.10;;
59728;SDS011;45588;51.598;5.618;2022-07-06T07:13:21;4.28;;;1.77;;
59728;SDS011;45588;51.598;5.618;2022-07-06T07:15:46;5.82;;;2.00;;
59728;SDS011;45588;51.598;5.618;2022-07-06T07:18:11;4.65;;;2.25;;
59728;SDS011;45588;51.598;5.618;2022-07-06T07:20:36;3.00;;;1.98;;
59728;SDS011;45588;51.598;5.618;2022-07-06T07:23:02;13.65;;;2.00;;
59728;SDS011;45588;51.598;5.618;2022-07-06T07:25:27;3.75;;;1.52;;
59728;SDS011;45588;51.598;5.618;2022-07-06T07:27:53;3.92;;;1.75;;
59728;SDS011;45588;51.598;5.618;2022-07-06T07:30:18;3.85;;;1.48;;
59728;SDS011;45588;51.598;5.618;2022-07-06T07:32:44;5.07;;;2.00;;
59728;SDS011;45588;51.598;5.618;2022-07-06T07:35:09;3.53;;;1.80;;
59728;SDS011;45588;51.598;5.618;2022-07-06T07:37:35;4.05;;;1.80;;
59728;SDS011;45588;51.598;5.618;2022-07-06T07:40:00;3.33;;;1.52;;
59728;SDS011;45588;51.598;5.618;2022-07-06T07:42:26;4.53;;;1.45;;
59728;SDS011;45588;51.598;5.618;2022-07-06T07:44:51;3.92;;;1.48;;
59728;SDS011;45588;51.598;5.618;2022-07-06T07:47:17;3.10;;;1.58;;
59728;SDS011;45588;51.598;5.618;2022-07-06T07:49:42;2.20;;;1.58;;
59728;SDS011;45588;51.598;5.618;2022-07-06T07:52:07;3.28;;;1.58;;
59728;SDS011;45588;51.598;5.618;2022-07-06T07:54:33;4.40;;;1.20;;
59728;SDS011;45588;51.598;5.618;2022-07-06T07:56:58;2.95;;;1.52;;
59728;SDS011;45588;51.598;5.618;2022-07-06T07:59:24;3.42;;;1.60;;
59728;SDS011;45588;51.598;5.618;2022-07-06T08:01:49;3.10;;;1.52;;
59728;SDS011;45588;51.598;5.618;2022-07-06T08:04:14;4.15;;;1.80;;
59728;SDS011;45588;51.598;5.618;2022-07-06T08:06:40;3.38;;;2.00;;
59728;SDS011;45588;51.598;5.618;2022-07-06T08:09:05;1.88;;;1.35;;
59728;SDS011;45588;51.598;5.618;2022-07-06T08:11:32;4.00;;;1.88;;
59728;SDS011;45588;51.598;5.618;2022-07-06T08:14:01;3.00;;;1.65;;
59728;SDS011;45588;51.598;5.618;2022-07-06T08:16:27;5.07;;;2.45;;
59728;SDS011;45588;51.598;5.618;2022-07-06T08:18:53;2.55;;;1.83;;
59728;SDS011;45588;51.598;5.618;2022-07-06T08:21:18;3.42;;;1.90;;
59728;SDS011;45588;51.598;5.618;2022-07-06T08:23:43;3.08;;;1.60;;
59728;SDS011;45588;51.598;5.618;2022-07-06T08:26:09;1.60;;;1.35;;
59728;SDS011;45588;51.598;5.618;2022-07-06T08:28:34;4.05;;;1.63;;
59728;SDS011;45588;51.598;5.618;2022-07-06T08:30:59;3.13;;;1.65;;
59728;SDS011;45588;51.598;5.618;2022-07-06T08:33:25;5.00;;;1.70;;
59728;SDS011;45588;51.598;5.618;2022-07-06T08:35:50;6.00;;;1.67;;
59728;SDS011;45588;51.598;5.618;2022-07-06T08:38:16;4.85;;;1.50;;
59728;SDS011;45588;51.598;5.618;2022-07-06T08:40:41;2.80;;;1.13;;
59728;SDS011;45588;51.598;5.618;2022-07-06T08:43:10;3.47;;;1.30;;
59728;SDS011;45588;51.598;5.618;2022-07-06T08:45:36;5.45;;;1.33;;
59728;SDS011;45588;51.598;5.618;2022-07-06T08:48:05;3.35;;;1.48;;
59728;SDS011;45588;51.598;5.618;2022-07-06T08:50:32;3.55;;;1.40;;
59728;SDS011;45588;51.598;5.618;2022-07-06T08:52:58;4.63;;;1.30;;
59728;SDS011;45588;51.598;5.618;2022-07-06T08:55:25;1.98;;;1.00;;
59728;SDS011;45588;51.598;5.618;2022-07-06T08:57:50;3.08;;;1.10;;
59728;SDS011;45588;51.598;5.618;2022-07-06T09:00:16;5.50;;;1.75;;
59728;SDS011;45588;51.598;5.618;2022-07-06T09:02:41;4.20;;;1.65;;
59728;SDS011;45588;51.598;5.618;2022-07-06T09:05:08;3.72;;;1.40;;
59728;SDS011;45588;51.598;5.618;2022-07-06T09:07:37;4.10;;;1.63;;
59728;SDS011;45588;51.598;5.618;2022-07-06T09:10:04;6.05;;;1.60;;
59728;SDS011;45588;51.598;5.618;2022-07-06T09:12:32;6.43;;;1.63;;
59728;SDS011;45588;51.598;5.618;2022-07-06T09:14:57;2.45;;;1.08;;
59728;SDS011;45588;51.598;5.618;2022-07-06T09:17:29;2.50;;;0.80;;
59728;SDS011;45588;51.598;5.618;2022-07-06T09:19:54;2.03;;;0.98;;
59728;SDS011;45588;51.598;5.618;2022-07-06T09:22:25;3.35;;;1.00;;
59728;SDS011;45588;51.598;5.618;2022-07-06T09:24:52;2.53;;;1.27;;
59728;SDS011;45588;51.598;5.618;2022-07-06T09:27:17;3.25;;;0.93;;
59728;SDS011;45588;51.598;5.618;2022-07-06T09:29:43;2.30;;;0.70;;
59728;SDS011;45588;51.598;5.618;2022-07-06T09:32:10;3.35;;;1.08;;
59728;SDS011;45588;51.598;5.618;2022-07-06T09:34:41;1.60;;;0.90;;
59728;SDS011;45588;51.598;5.618;2022-07-06T09:37:08;2.65;;;1.35;;
59728;SDS011;45588;51.598;5.618;2022-07-06T09:39:33;3.10;;;1.17;;
59728;SDS011;45588;51.598;5.618;2022-07-06T09:42:00;3.17;;;1.48;;
59728;SDS011;45588;51.598;5.618;2022-07-06T09:44:26;3.22;;;1.75;;
59728;SDS011;45588;51.598;5.618;2022-07-06T09:46:56;2.70;;;2.13;;
59728;SDS011;45588;51.598;5.618;2022-07-06T09:49:23;1.10;;;0.60;;
59728;SDS011;45588;51.598;5.618;2022-07-06T09:51:54;1.92;;;0.98;;
59728;SDS011;45588;51.598;5.618;2022-07-06T09:54:21;1.75;;;0.85;;
59728;SDS011;45588;51.598;5.618;2022-07-06T09:56:47;3.33;;;1.13;;
59728;SDS011;45588;51.598;5.618;2022-07-06T09:59:16;3.53;;;1.00;;
59728;SDS011;45588;51.598;5.618;2022-07-06T10:01:53;2.67;;;0.88;;
59728;SDS011;45588;51.598;5.618;2022-07-06T10:04:20;2.28;;;1.00;;
59728;SDS011;45588;51.598;5.618;2022-07-06T10:06:47;2.33;;;1.00;;
59728;SDS011;45588;51.598;5.618;2022-07-06T10:09:13;1.88;;;1.00;;
59728;SDS011;45588;51.598;5.618;2022-07-06T10:11:42;2.47;;;1.00;;
59728;SDS011;45588;51.598;5.618;2022-07-06T10:14:12;3.25;;;1.30;;
59728;SDS011;45588;51.598;5.618;2022-07-06T10:16:41;3.70;;;0.90;;
59728;SDS011;45588;51.598;5.618;2022-07-06T10:19:07;4.35;;;1.00;;
59728;SDS011;45588;51.598;5.618;2022-07-06T10:21:38;3.42;;;1.08;;
59728;SDS011;45588;51.598;5.618;2022-07-06T10:24:07;2.03;;;1.02;;
59728;SDS011;45588;51.598;5.618;2022-07-06T10:26:34;1.98;;;0.90;;
59728;SDS011;45588;51.598;5.618;2022-07-06T10:29:01;2.17;;;0.90;;
59728;SDS011;45588;51.598;5.618;2022-07-06T10:31:28;2.08;;;1.02;;
59728;SDS011;45588;51.598;5.618;2022-07-06T10:33:57;2.95;;;1.13;;
59728;SDS011;45588;51.598;5.618;2022-07-06T10:36:28;2.55;;;0.82;;
59728;SDS011;45588;51.598;5.618;2022-07-06T10:38:54;2.70;;;0.82;;
59728;SDS011;45588;51.598;5.618;2022-07-06T10:41:29;0.93;;;0.63;;
59728;SDS011;45588;51.598;5.618;2022-07-06T10:43:56;3.28;;;1.10;;
59728;SDS011;45588;51.598;5.618;2022-07-06T10:46:22;2.83;;;0.90;;
59728;SDS011;45588;51.598;5.618;2022-07-06T10:48:52;2.25;;;0.80;;
59728;SDS011;45588;51.598;5.618;2022-07-06T10:51:27;3.40;;;0.82;;
59728;SDS011;45588;51.598;5.618;2022-07-06T10:54:11;3.90;;;1.00;;
59728;SDS011;45588;51.598;5.618;2022-07-06T10:56:38;2.40;;;0.90;;
59728;SDS011;45588;51.598;5.618;2022-07-06T10:59:10;3.08;;;1.05;;
59728;SDS011;45588;51.598;5.618;2022-07-06T11:04:46;2.75;;;0.80;;
59728;SDS011;45588;51.598;5.618;2022-07-06T11:07:14;2.78;;;0.80;;
59728;SDS011;45588;51.598;5.618;2022-07-06T11:09:41;4.03;;;0.93;;
59728;SDS011;45588;51.598;5.618;2022-07-06T11:12:16;3.08;;;1.10;;
59728;SDS011;45588;51.598;5.618;2022-07-06T11:14:43;2.03;;;1.10;;
59728;SDS011;45588;51.598;5.618;2022-07-06T11:17:09;3.88;;;1.00;;
59728;SDS011;45588;51.598;5.618;2022-07-06T11:19:35;5.00;;;1.20;;
59728;SDS011;45588;51.598;5.618;2022-07-06T11:22:08;2.03;;;1.00;;
59728;SDS011;45588;51.598;5.618;2022-07-06T11:24:40;2.92;;;1.00;;
59728;SDS011;45588;51.598;5.618;2022-07-06T11:27:06;3.72;;;1.00;;
59728;SDS011;45588;51.598;5.618;2022-07-06T11:29:32;2.65;;;1.23;;
59728;SDS011;45588;51.598;5.618;2022-07-06T11:31:59;3.25;;;1.20;;
59728;SDS011;45588;51.598;5.618;2022-07-06T11:34:33;6.10;;;1.10;;
59728;SDS011;45588;51.598;5.618;2022-07-06T11:37:12;3.55;;;1.10;;
59728;SDS011;45588;51.598;5.618;2022-07-06T11:39:43;3.40;;;1.27;;
59728;SDS011;45588;51.598;5.618;2022-07-06T11:42:10;4.38;;;1.00;;
59728;SDS011;45588;51.598;5.618;2022-07-06T11:44:37;2.90;;;1.27;;
59728;SDS011;45588;51.598;5.618;2022-07-06T11:47:03;2.55;;;0.90;;
59728;SDS011;45588;51.598;5.618;2022-07-06T11:49:30;2.42;;;1.08;;
59728;SDS011;45588;51.598;5.618;2022-07-06T11:51:56;3.30;;;0.93;;
59728;SDS011;45588;51.598;5.618;2022-07-06T11:54:22;2.10;;;0.90;;
59728;SDS011;45588;51.598;5.618;2022-07-06T11:56:52;3.20;;;1.40;;
59728;SDS011;45588;51.598;5.618;2022-07-06T11:59:22;3.47;;;1.15;;
59728;SDS011;45588;51.598;5.618;2022-07-06T12:01:49;2.05;;;0.90;;
59728;SDS011;45588;51.598;5.618;2022-07-06T12:04:23;2.55;;;1.02;;
59728;SDS011;45588;51.598;5.618;2022-07-06T12:06:49;6.43;;;1.50;;
59728;SDS011;45588;51.598;5.618;2022-07-06T12:09:15;4.13;;;1.20;;
59728;SDS011;45588;51.598;5.618;2022-07-06T12:11:40;3.53;;;1.05;;
59728;SDS011;45588;51.598;5.618;2022-07-06T12:16:45;3.97;;;1.10;;
59728;SDS011;45588;51.598;5.618;2022-07-06T12:19:11;4.32;;;1.02;;
59728;SDS011;45588;51.598;5.618;2022-07-06T12:21:47;2.80;;;1.05;;
59728;SDS011;45588;51.598;5.618;2022-07-06T12:24:33;5.22;;;1.42;;
59728;SDS011;45588;51.598;5.618;2022-07-06T12:27:09;3.17;;;1.33;;
59728;SDS011;45588;51.598;5.618;2022-07-06T12:29:39;3.72;;;1.23;;
59728;SDS011;45588;51.598;5.618;2022-07-06T12:32:05;4.05;;;1.15;;
59728;SDS011;45588;51.598;5.618;2022-07-06T12:34:30;1.98;;;1.08;;
59728;SDS011;45588;51.598;5.618;2022-07-06T12:36:59;1.90;;;1.10;;
59728;SDS011;45588;51.598;5.618;2022-07-06T12:39:31;4.97;;;1.20;;
59728;SDS011;45588;51.598;5.618;2022-07-06T12:42:03;2.97;;;1.00;;
59728;SDS011;45588;51.598;5.618;2022-07-06T12:44:29;3.58;;;1.50;;
59728;SDS011;45588;51.598;5.618;2022-07-06T12:47:05;7.82;;;1.83;;
59728;SDS011;45588;51.598;5.618;2022-07-06T12:49:32;5.75;;;1.30;;
59728;SDS011;45588;51.598;5.618;2022-07-06T12:52:09;2.72;;;0.88;;
59728;SDS011;45588;51.598;5.618;2022-07-06T12:54:42;3.97;;;0.90;;
59728;SDS011;45588;51.598;5.618;2022-07-06T12:57:13;3.03;;;0.93;;
59728;SDS011;45588;51.598;5.618;2022-07-06T12:59:43;3.22;;;1.35;;
59728;SDS011;45588;51.598;5.618;2022-07-06T13:04:55;3.33;;;1.10;;
59728;SDS011;45588;51.598;5.618;2022-07-06T13:07:21;2.50;;;1.10;;
59728;SDS011;45588;51.598;5.618;2022-07-06T13:09:47;4.85;;;1.13;;
59728;SDS011;45588;51.598;5.618;2022-07-06T13:12:12;3.10;;;1.30;;
59728;SDS011;45588;51.598;5.618;2022-07-06T13:14:37;2.75;;;1.00;;
59728;SDS011;45588;51.598;5.618;2022-07-06T13:17:03;8.40;;;1.60;;
59728;SDS011;45588;51.598;5.618;2022-07-06T13:19:28;4.18;;;1.10;;
59728;SDS011;45588;51.598;5.618;2022-07-06T13:21:54;4.90;;;1.30;;
59728;SDS011;45588;51.598;5.618;2022-07-06T13:24:19;5.05;;;1.45;;
59728;SDS011;45588;51.598;5.618;2022-07-06T13:26:44;4.05;;;1.05;;
59728;SDS011;45588;51.598;5.618;2022-07-06T13:29:11;2.72;;;1.10;;
59728;SDS011;45588;51.598;5.618;2022-07-06T13:31:36;3.55;;;0.95;;
59728;SDS011;45588;51.598;5.618;2022-07-06T13:34:03;15.75;;;1.98;;
59728;SDS011;45588;51.598;5.618;2022-07-06T13:36:28;3.42;;;1.08;;
59728;SDS011;45588;51.598;5.618;2022-07-06T13:38:54;3.42;;;1.23;;
59728;SDS011;45588;51.598;5.618;2022-07-06T13:41:19;7.03;;;1.13;;
59728;SDS011;45588;51.598;5.618;2022-07-06T13:43:44;2.40;;;1.10;;
59728;SDS011;45588;51.598;5.618;2022-07-06T13:46:09;6.68;;;1.42;;
59728;SDS011;45588;51.598;5.618;2022-07-06T13:48:36;3.40;;;1.13;;
59728;SDS011;45588;51.598;5.618;2022-07-06T13:51:01;2.65;;;1.05;;
59728;SDS011;45588;51.598;5.618;2022-07-06T13:53:27;3.90;;;0.85;;
59728;SDS011;45588;51.598;5.618;2022-07-06T13:55:52;3.80;;;1.40;;
59728;SDS011;45588;51.598;5.618;2022-07-06T13:58:18;2.75;;;1.33;;
59728;SDS011;45588;51.598;5.618;2022-07-06T14:00:44;3.83;;;1.40;;
59728;SDS011;45588;51.598;5.618;2022-07-06T14:03:09;4.80;;;1.20;;
59728;SDS011;45588;51.598;5.618;2022-07-06T14:05:35;4.13;;;1.02;;
59728;SDS011;45588;51.598;5.618;2022-07-06T14:08:00;2.20;;;1.00;;
59728;SDS011;45588;51.598;5.618;2022-07-06T14:10:27;5.35;;;1.20;;
59728;SDS011;45588;51.598;5.618;2022-07-06T14:12:52;5.25;;;1.20;;
59728;SDS011;45588;51.598;5.618;2022-07-06T14:15:18;5.53;;;1.42;;
59728;SDS011;45588;51.598;5.618;2022-07-06T14:17:43;3.67;;;1.42;;
59728;SDS011;45588;51.598;5.618;2022-07-06T14:20:09;5.10;;;1.58;;
59728;SDS011;45588;51.598;5.618;2022-07-06T14:22:34;3.47;;;1.30;;
59728;SDS011;45588;51.598;5.618;2022-07-06T14:25:00;2.55;;;1.70;;
59728;SDS011;45588;51.598;5.618;2022-07-06T14:27:25;2.83;;;1.48;;
59728;SDS011;45588;51.598;5.618;2022-07-06T14:29:50;7.20;;;1.55;;
59728;SDS011;45588;51.598;5.618;2022-07-06T14:32:16;3.95;;;1.67;;
59728;SDS011;45588;51.598;5.618;2022-07-06T14:34:41;3.38;;;1.50;;
59728;SDS011;45588;51.598;5.618;2022-07-06T14:37:07;6.30;;;1.45;;
59728;SDS011;45588;51.598;5.618;2022-07-06T14:39:32;4.30;;;1.67;;
59728;SDS011;45588;51.598;5.618;2022-07-06T14:41:58;4.63;;;1.60;;
59728;SDS011;45588;51.598;5.618;2022-07-06T14:44:23;3.67;;;1.80;;
59728;SDS011;45588;51.598;5.618;2022-07-06T14:46:48;3.10;;;1.60;;
59728;SDS011;45588;51.598;5.618;2022-07-06T14:49:14;6.88;;;1.95;;